sensor_id;sensor_type;location;lat;lon;timestamp;pressure;altitude;pressure_sealevel;temperature;humidity
24065;BME280;12258;50.940;5.330;2022-09-13T00:01:12;100663.13;;;21.85;100.00
24065;BME280;12258;50.940;5.330;2022-09-13T00:03:37;100674.72;;;21.87;100.00
24065;BME280;12258;50.940;5.330;2022-09-13T00:06:14;100664.81;;;22.06;100.00
24065;BME280;12258;50.940;5.330;2022-09-13T00:08:41;100663.22;;;21.51;100.00
24065;BME280;12258;50.940;5.330;2022-09-13T00:11:11;100653.19;;;21.67;100.00
24065;BME280;12258;50.940;5.330;2022-09-13T00:13:39;100662.63;;;21.74;100.00
24065;BME280;12258;50.940;5.330;2022-09-13T00:16:10;100657.09;;;21.66;100.00
24065;BME280;12258;50.940;5.330;2022-09-13T00:18:35;100664.03;;;21.51;100.00
24065;BME280;12258;50.940;5.330;2022-09-13T00:21:13;100660.88;;;21.78;100.00
24065;BME280;12258;50.940;5.330;2022-09-13T00:23:39;100653.75;;;21.43;100.00
24065;BME280;12258;50.940;5.330;2022-09-13T00:26:10;100655.81;;;21.63;100.00
24065;BME280;12258;50.940;5.330;2022-09-13T00:28:37;100644.84;;;21.67;100.00
24065;BME280;12258;50.940;5.330;2022-09-13T00:31:04;100649.41;;;21.71;100.00
24065;BME280;12258;50.940;5.330;2022-09-13T00:33:31;100641.41;;;21.70;100.00
24065;BME280;12258;50.940;5.330;2022-09-13T00:35:57;100636.00;;;21.73;100.00
24065;BME280;12258;50.940;5.330;2022-09-13T00:38:22;100627.22;;;21.54;100.00
24065;BME280;12258;50.940;5.330;2022-09-13T00:40:48;100625.09;;;21.51;100.00
24065;BME280;12258;50.940;5.330;2022-09-13T00:43:19;100630.34;;;21.53;100.00
24065;BME280;12258;50.940;5.330;2022-09-13T00:45:46;100625.09;;;21.60;100.00
24065;BME280;12258;50.940;5.330;2022-09-13T00:48:19;100630.81;;;21.55;100.00
24065;BME280;12258;50.940;5.330;2022-09-13T00:50:55;100626.06;;;21.64;100.00
24065;BME280;12258;50.940;5.330;2022-09-13T00:53:25;100621.19;;;21.52;100.00
24065;BME280;12258;50.940;5.330;2022-09-13T00:58:36;100630.47;;;21.65;100.00
24065;BME280;12258;50.940;5.330;2022-09-13T01:01:05;100631.63;;;21.64;100.00
24065;BME280;12258;50.940;5.330;2022-09-13T01:03:34;100629.53;;;21.52;100.00
24065;BME280;12258;50.940;5.330;2022-09-13T01:06:04;100629.28;;;21.66;100.00
24065;BME280;12258;50.940;5.330;2022-09-13T01:08:33;100625.63;;;21.45;100.00
24065;BME280;12258;50.940;5.330;2022-09-13T01:11:01;100618.31;;;21.31;100.00
24065;BME280;12258;50.940;5.330;2022-09-13T01:13:32;100615.19;;;21.42;100.00
24065;BME280;12258;50.940;5.330;2022-09-13T01:15:58;100608.69;;;21.67;100.00
24065;BME280;12258;50.940;5.330;2022-09-13T01:18:25;100610.50;;;21.16;100.00
24065;BME280;12258;50.940;5.330;2022-09-13T01:31:44;100577.22;;;21.08;100.00
24065;BME280;12258;50.940;5.330;2022-09-13T01:34:44;100575.78;;;21.40;100.00
24065;BME280;12258;50.940;5.330;2022-09-13T01:40:00;100565.16;;;21.71;100.00
24065;BME280;12258;50.940;5.330;2022-09-13T01:47:47;100558.69;;;21.58;100.00
24065;BME280;12258;50.940;5.330;2022-09-13T01:55:34;100551.19;;;21.88;100.00
24065;BME280;12258;50.940;5.330;2022-09-13T01:58:12;100550.91;;;21.72;100.00
24065;BME280;12258;50.940;5.330;2022-09-13T02:00:50;100556.13;;;21.74;100.00
24065;BME280;12258;50.940;5.330;2022-09-13T02:04:10;100552.06;;;21.80;100.00
24065;BME280;12258;50.940;5.330;2022-09-13T02:06:13;100543.97;;;21.87;100.00
24065;BME280;12258;50.940;5.330;2022-09-13T02:08:44;100547.63;;;21.79;100.00
24065;BME280;12258;50.940;5.330;2022-09-13T02:11:15;100551.69;;;21.90;100.00
24065;BME280;12258;50.940;5.330;2022-09-13T02:13:58;100553.31;;;21.91;100.00
24065;BME280;12258;50.940;5.330;2022-09-13T02:16:54;100553.72;;;22.01;100.00
24065;BME280;12258;50.940;5.330;2022-09-13T02:19:35;100559.34;;;21.93;100.00
24065;BME280;12258;50.940;5.330;2022-09-13T02:22:02;100564.72;;;21.98;100.00
24065;BME280;12258;50.940;5.330;2022-09-13T02:24:40;100568.19;;;21.95;100.00
24065;BME280;12258;50.940;5.330;2022-09-13T02:27:09;100572.03;;;21.82;100.00
24065;BME280;12258;50.940;5.330;2022-09-13T02:29:38;100571.19;;;21.81;100.00
24065;BME280;12258;50.940;5.330;2022-09-13T02:32:12;100564.81;;;21.81;100.00
24065;BME280;12258;50.940;5.330;2022-09-13T02:34:48;100563.00;;;21.85;100.00
24065;BME280;12258;50.940;5.330;2022-09-13T02:37:16;100558.31;;;21.77;100.00
24065;BME280;12258;50.940;5.330;2022-09-13T02:39:54;100558.13;;;21.82;100.00
24065;BME280;12258;50.940;5.330;2022-09-13T02:42:33;100563.03;;;21.76;100.00
24065;BME280;12258;50.940;5.330;2022-09-13T02:45:00;100557.97;;;21.70;100.00
24065;BME280;12258;50.940;5.330;2022-09-13T02:47:52;100570.03;;;21.74;100.00
24065;BME280;12258;50.940;5.330;2022-09-13T02:50:45;100564.81;;;21.72;100.00
24065;BME280;12258;50.940;5.330;2022-09-13T02:53:39;100568.75;;;21.80;100.00
24065;BME280;12258;50.940;5.330;2022-09-13T02:58:55;100588.09;;;21.68;100.00
24065;BME280;12258;50.940;5.330;2022-09-13T03:01:22;100579.44;;;21.61;100.00
24065;BME280;12258;50.940;5.330;2022-09-13T03:03:48;100574.38;;;21.63;100.00
24065;BME280;12258;50.940;5.330;2022-09-13T03:06:27;100582.38;;;21.64;100.00
24065;BME280;12258;50.940;5.330;2022-09-13T03:08:59;100586.97;;;21.60;100.00
24065;BME280;12258;50.940;5.330;2022-09-13T03:17:14;100609.56;;;21.59;100.00
24065;BME280;12258;50.940;5.330;2022-09-13T03:28:41;100607.91;;;21.58;100.00
24065;BME280;12258;50.940;5.330;2022-09-13T03:30:48;100610.41;;;21.51;100.00
24065;BME280;12258;50.940;5.330;2022-09-13T03:33:30;100620.72;;;21.50;100.00
24065;BME280;12258;50.940;5.330;2022-09-13T03:36:20;100628.72;;;21.52;100.00
24065;BME280;12258;50.940;5.330;2022-09-13T03:41:26;100628.53;;;21.57;100.00
24065;BME280;12258;50.940;5.330;2022-09-13T03:44:05;100626.75;;;21.52;100.00
24065;BME280;12258;50.940;5.330;2022-09-13T03:46:36;100617.47;;;21.40;100.00
24065;BME280;12258;50.940;5.330;2022-09-13T03:49:09;100621.56;;;21.42;100.00
24065;BME280;12258;50.940;5.330;2022-09-13T03:51:37;100614.34;;;21.41;100.00
24065;BME280;12258;50.940;5.330;2022-09-13T03:54:09;100607.50;;;21.39;100.00
24065;BME280;12258;50.940;5.330;2022-09-13T03:56:36;100603.75;;;21.34;100.00
24065;BME280;12258;50.940;5.330;2022-09-13T03:59:02;100606.00;;;21.41;100.00
24065;BME280;12258;50.940;5.330;2022-09-13T04:01:27;100600.94;;;21.43;100.00
24065;BME280;12258;50.940;5.330;2022-09-13T04:03:53;100600.59;;;21.45;100.00
24065;BME280;12258;50.940;5.330;2022-09-13T04:06:19;100600.31;;;21.38;100.00
24065;BME280;12258;50.940;5.330;2022-09-13T04:08:44;100603.06;;;21.46;100.00
24065;BME280;12258;50.940;5.330;2022-09-13T04:11:10;100599.00;;;21.44;100.00
24065;BME280;12258;50.940;5.330;2022-09-13T04:13:36;100606.97;;;21.54;100.00
24065;BME280;12258;50.940;5.330;2022-09-13T04:16:04;100598.66;;;21.45;100.00
24065;BME280;12258;50.940;5.330;2022-09-13T04:18:30;100601.28;;;21.42;100.00
24065;BME280;12258;50.940;5.330;2022-09-13T04:20:57;100595.72;;;21.42;100.00
24065;BME280;12258;50.940;5.330;2022-09-13T04:23:24;100599.66;;;21.41;100.00
24065;BME280;12258;50.940;5.330;2022-09-13T04:25:49;100589.06;;;21.34;100.00
24065;BME280;12258;50.940;5.330;2022-09-13T04:28:18;100581.19;;;21.36;100.00
24065;BME280;12258;50.940;5.330;2022-09-13T04:30:46;100585.75;;;21.41;100.00
24065;BME280;12258;50.940;5.330;2022-09-13T04:33:12;100578.09;;;21.38;100.00
24065;BME280;12258;50.940;5.330;2022-09-13T04:35:38;100578.22;;;21.41;100.00
24065;BME280;12258;50.940;5.330;2022-09-13T04:38:04;100580.38;;;21.36;100.00
24065;BME280;12258;50.940;5.330;2022-09-13T04:40:30;100579.41;;;21.31;100.00
24065;BME280;12258;50.940;5.330;2022-09-13T04:42:55;100592.63;;;21.34;100.00
24065;BME280;12258;50.940;5.330;2022-09-13T04:45:21;100599.34;;;21.33;100.00
24065;BME280;12258;50.940;5.330;2022-09-13T04:47:53;100599.16;;;21.39;100.00
24065;BME280;12258;50.940;5.330;2022-09-13T04:50:20;100593.31;;;21.31;100.00
24065;BME280;12258;50.940;5.330;2022-09-13T04:52:46;100592.50;;;21.31;100.00
24065;BME280;12258;50.940;5.330;2022-09-13T04:55:12;100592.13;;;21.41;100.00
24065;BME280;12258;50.940;5.330;2022-09-13T04:57:38;100598.69;;;21.37;100.00
24065;BME280;12258;50.940;5.330;2022-09-13T05:00:05;100592.28;;;21.36;100.00
24065;BME280;12258;50.940;5.330;2022-09-13T05:02:30;100594.09;;;21.41;100.00
24065;BME280;12258;50.940;5.330;2022-09-13T05:04:56;100597.56;;;21.29;100.00
24065;BME280;12258;50.940;5.330;2022-09-13T05:07:22;100593.78;;;21.33;100.00
24065;BME280;12258;50.940;5.330;2022-09-13T05:09:47;100588.72;;;21.36;100.00
24065;BME280;12258;50.940;5.330;2022-09-13T05:12:13;100589.22;;;21.38;100.00
24065;BME280;12258;50.940;5.330;2022-09-13T05:14:38;100590.00;;;21.38;100.00
24065;BME280;12258;50.940;5.330;2022-09-13T05:17:04;100590.53;;;21.31;100.00
24065;BME280;12258;50.940;5.330;2022-09-13T05:19:30;100600.00;;;21.30;100.00
24065;BME280;12258;50.940;5.330;2022-09-13T05:21:55;100599.19;;;21.30;100.00
24065;BME280;12258;50.940;5.330;2022-09-13T05:24:21;100593.31;;;21.31;100.00
24065;BME280;12258;50.940;5.330;2022-09-13T05:26:46;100592.53;;;21.22;100.00
24065;BME280;12258;50.940;5.330;2022-09-13T05:29:12;100599.69;;;21.23;100.00
24065;BME280;12258;50.940;5.330;2022-09-13T05:31:39;100596.44;;;21.21;100.00
24065;BME280;12258;50.940;5.330;2022-09-13T05:34:07;100599.38;;;21.16;100.00
24065;BME280;12258;50.940;5.330;2022-09-13T05:36:35;100601.72;;;21.14;100.00
24065;BME280;12258;50.940;5.330;2022-09-13T05:39:01;100596.44;;;21.21;100.00
24065;BME280;12258;50.940;5.330;2022-09-13T05:41:27;100600.22;;;21.17;100.00
24065;BME280;12258;50.940;5.330;2022-09-13T05:43:52;100603.84;;;21.00;100.00
24065;BME280;12258;50.940;5.330;2022-09-13T05:46:20;100617.22;;;21.15;100.00
24065;BME280;12258;50.940;5.330;2022-09-13T05:48:47;100613.78;;;21.18;100.00
24065;BME280;12258;50.940;5.330;2022-09-13T05:51:21;100618.38;;;21.14;100.00
24065;BME280;12258;50.940;5.330;2022-09-13T05:53:49;100621.16;;;21.14;100.00
24065;BME280;12258;50.940;5.330;2022-09-13T05:56:23;100619.66;;;21.25;100.00
24065;BME280;12258;50.940;5.330;2022-09-13T05:58:50;100628.97;;;21.21;100.00
24065;BME280;12258;50.940;5.330;2022-09-13T06:01:19;100634.19;;;21.22;100.00
24065;BME280;12258;50.940;5.330;2022-09-13T06:03:52;100632.72;;;21.25;100.00
24065;BME280;12258;50.940;5.330;2022-09-13T06:06:19;100636.66;;;21.24;100.00
24065;BME280;12258;50.940;5.330;2022-09-13T06:08:45;100641.88;;;21.25;100.00
24065;BME280;12258;50.940;5.330;2022-09-13T06:11:13;100635.50;;;21.25;100.00
24065;BME280;12258;50.940;5.330;2022-09-13T06:13:39;100631.59;;;21.26;100.00
24065;BME280;12258;50.940;5.330;2022-09-13T06:16:07;100634.81;;;21.37;100.00
24065;BME280;12258;50.940;5.330;2022-09-13T06:18:34;100632.34;;;21.44;100.00
24065;BME280;12258;50.940;5.330;2022-09-13T06:21:03;100627.81;;;21.30;100.00
24065;BME280;12258;50.940;5.330;2022-09-13T06:23:29;100632.16;;;21.49;100.00
24065;BME280;12258;50.940;5.330;2022-09-13T06:26:02;100624.66;;;21.41;100.00
24065;BME280;12258;50.940;5.330;2022-09-13T06:28:29;100627.66;;;21.27;100.00
24065;BME280;12258;50.940;5.330;2022-09-13T06:31:03;100622.91;;;21.27;100.00
24065;BME280;12258;50.940;5.330;2022-09-13T06:33:29;100618.41;;;21.52;100.00
24065;BME280;12258;50.940;5.330;2022-09-13T06:35:54;100620.31;;;21.22;100.00
24065;BME280;12258;50.940;5.330;2022-09-13T06:38:20;100608.91;;;20.98;100.00
24065;BME280;12258;50.940;5.330;2022-09-13T06:40:46;100608.44;;;21.43;100.00
24065;BME280;12258;50.940;5.330;2022-09-13T06:43:11;100613.72;;;21.36;100.00
24065;BME280;12258;50.940;5.330;2022-09-13T06:45:37;100617.72;;;21.17;100.00
24065;BME280;12258;50.940;5.330;2022-09-13T06:48:02;100620.41;;;21.34;100.00
24065;BME280;12258;50.940;5.330;2022-09-13T06:50:28;100625.53;;;21.70;100.00
24065;BME280;12258;50.940;5.330;2022-09-13T06:52:55;100630.00;;;21.08;100.00
24065;BME280;12258;50.940;5.330;2022-09-13T06:55:21;100622.94;;;21.10;100.00
24065;BME280;12258;50.940;5.330;2022-09-13T06:57:46;100626.41;;;21.54;100.00
24065;BME280;12258;50.940;5.330;2022-09-13T07:00:12;100623.19;;;21.34;100.00
24065;BME280;12258;50.940;5.330;2022-09-13T07:02:37;100614.69;;;21.40;100.00
24065;BME280;12258;50.940;5.330;2022-09-13T07:05:03;100615.97;;;21.51;100.00
24065;BME280;12258;50.940;5.330;2022-09-13T07:07:30;100608.63;;;21.84;100.00
24065;BME280;12258;50.940;5.330;2022-09-13T07:09:55;100608.94;;;22.11;100.00
24065;BME280;12258;50.940;5.330;2022-09-13T07:12:21;100615.44;;;22.24;100.00
24065;BME280;12258;50.940;5.330;2022-09-13T07:14:46;100614.25;;;22.04;100.00
24065;BME280;12258;50.940;5.330;2022-09-13T07:17:12;100608.72;;;22.25;100.00
24065;BME280;12258;50.940;5.330;2022-09-13T07:19:37;100612.25;;;22.34;100.00
24065;BME280;12258;50.940;5.330;2022-09-13T07:22:02;100612.59;;;22.32;100.00
24065;BME280;12258;50.940;5.330;2022-09-13T07:24:29;100612.00;;;21.98;100.00
24065;BME280;12258;50.940;5.330;2022-09-13T07:26:55;100609.13;;;21.86;100.00
24065;BME280;12258;50.940;5.330;2022-09-13T07:29:21;100609.88;;;22.44;100.00
24065;BME280;12258;50.940;5.330;2022-09-13T07:31:49;100612.09;;;21.72;100.00
24065;BME280;12258;50.940;5.330;2022-09-13T07:34:17;100609.69;;;22.29;100.00
24065;BME280;12258;50.940;5.330;2022-09-13T07:36:43;100619.84;;;22.25;100.00
24065;BME280;12258;50.940;5.330;2022-09-13T07:39:11;100622.31;;;22.68;100.00
24065;BME280;12258;50.940;5.330;2022-09-13T07:41:36;100616.00;;;22.79;100.00
24065;BME280;12258;50.940;5.330;2022-09-13T07:44:03;100622.28;;;23.09;100.00
24065;BME280;12258;50.940;5.330;2022-09-13T07:46:30;100622.75;;;23.43;100.00
24065;BME280;12258;50.940;5.330;2022-09-13T07:49:00;100623.66;;;23.15;100.00
24065;BME280;12258;50.940;5.330;2022-09-13T07:51:34;100637.28;;;23.61;100.00
24065;BME280;12258;50.940;5.330;2022-09-13T07:54:02;100631.72;;;23.73;100.00
24065;BME280;12258;50.940;5.330;2022-09-13T07:56:33;100636.47;;;23.97;100.00
24065;BME280;12258;50.940;5.330;2022-09-13T07:59:00;100637.66;;;24.20;100.00
24065;BME280;12258;50.940;5.330;2022-09-13T08:01:28;100633.63;;;24.57;100.00
24065;BME280;12258;50.940;5.330;2022-09-13T08:03:56;100637.06;;;24.38;100.00
24065;BME280;12258;50.940;5.330;2022-09-13T08:06:23;100645.09;;;24.40;100.00
24065;BME280;12258;50.940;5.330;2022-09-13T08:08:50;100641.13;;;24.41;100.00
24065;BME280;12258;50.940;5.330;2022-09-13T08:11:22;100654.13;;;24.73;100.00
24065;BME280;12258;50.940;5.330;2022-09-13T08:13:49;100650.72;;;24.79;100.00
24065;BME280;12258;50.940;5.330;2022-09-13T08:16:16;100652.59;;;25.03;100.00
24065;BME280;12258;50.940;5.330;2022-09-13T08:18:44;100650.84;;;25.54;100.00
24065;BME280;12258;50.940;5.330;2022-09-13T08:21:10;100657.91;;;25.79;100.00
24065;BME280;12258;50.940;5.330;2022-09-13T08:23:36;100641.34;;;26.36;100.00
24065;BME280;12258;50.940;5.330;2022-09-13T08:26:02;100641.81;;;26.73;100.00
24065;BME280;12258;50.940;5.330;2022-09-13T08:28:28;100649.69;;;26.67;100.00
24065;BME280;12258;50.940;5.330;2022-09-13T08:30:56;100655.94;;;27.37;100.00
24065;BME280;12258;50.940;5.330;2022-09-13T08:33:26;100660.72;;;28.23;100.00
24065;BME280;12258;50.940;5.330;2022-09-13T08:35:52;100659.06;;;27.32;100.00
24065;BME280;12258;50.940;5.330;2022-09-13T08:38:19;100660.00;;;28.04;100.00
24065;BME280;12258;50.940;5.330;2022-09-13T08:40:54;100664.63;;;28.19;100.00
24065;BME280;12258;50.940;5.330;2022-09-13T08:48:41;100671.97;;;28.49;100.00
24065;BME280;12258;50.940;5.330;2022-09-13T08:54:05;100678.03;;;29.44;99.09
24065;BME280;12258;50.940;5.330;2022-09-13T09:05:02;100671.94;;;30.15;91.07
24065;BME280;12258;50.940;5.330;2022-09-13T09:07:39;100667.09;;;28.72;93.31
24065;BME280;12258;50.940;5.330;2022-09-13T09:10:27;100674.44;;;30.27;92.61
24065;BME280;12258;50.940;5.330;2022-09-13T09:13:35;100674.03;;;30.86;86.04
24065;BME280;12258;50.940;5.330;2022-09-13T09:18:53;100676.16;;;29.55;86.70
24065;BME280;12258;50.940;5.330;2022-09-13T09:21:20;100671.75;;;30.41;89.50
24065;BME280;12258;50.940;5.330;2022-09-13T09:23:50;100672.06;;;30.90;81.50
24065;BME280;12258;50.940;5.330;2022-09-13T09:26:18;100668.25;;;30.65;84.86
24065;BME280;12258;50.940;5.330;2022-09-13T09:29:14;100662.16;;;30.05;84.05
24065;BME280;12258;50.940;5.330;2022-09-13T09:37:25;100647.59;;;29.53;85.20
24065;BME280;12258;50.940;5.330;2022-09-13T09:39:54;100642.03;;;30.07;81.11
24065;BME280;12258;50.940;5.330;2022-09-13T09:42:28;100644.84;;;30.07;85.00
24065;BME280;12258;50.940;5.330;2022-09-13T09:44:59;100641.56;;;29.58;82.13
24065;BME280;12258;50.940;5.330;2022-09-13T09:47:28;100637.03;;;29.83;78.89
24065;BME280;12258;50.940;5.330;2022-09-13T09:55:45;100633.41;;;30.33;90.70
24065;BME280;12258;50.940;5.330;2022-09-13T09:58:12;100633.31;;;29.02;92.69
24065;BME280;12258;50.940;5.330;2022-09-13T10:00:57;100616.47;;;30.26;83.05
24065;BME280;12258;50.940;5.330;2022-09-13T10:03:25;100613.09;;;30.75;86.69
24065;BME280;12258;50.940;5.330;2022-09-13T10:06:05;100610.19;;;30.57;79.56
24065;BME280;12258;50.940;5.330;2022-09-13T10:08:34;100608.16;;;31.68;79.76
24065;BME280;12258;50.940;5.330;2022-09-13T10:11:02;100608.09;;;32.35;74.89
24065;BME280;12258;50.940;5.330;2022-09-13T10:13:28;100603.97;;;32.74;72.32
24065;BME280;12258;50.940;5.330;2022-09-13T10:16:05;100601.66;;;32.31;71.33
24065;BME280;12258;50.940;5.330;2022-09-13T10:18:35;100603.28;;;32.32;69.49
24065;BME280;12258;50.940;5.330;2022-09-13T10:23:44;100601.97;;;32.71;71.89
24065;BME280;12258;50.940;5.330;2022-09-13T10:26:13;100599.59;;;32.56;68.10
24065;BME280;12258;50.940;5.330;2022-09-13T10:28:59;100592.72;;;32.57;68.46
24065;BME280;12258;50.940;5.330;2022-09-13T10:31:36;100592.84;;;31.87;73.35
24065;BME280;12258;50.940;5.330;2022-09-13T10:34:13;100592.75;;;32.46;68.42
24065;BME280;12258;50.940;5.330;2022-09-13T10:39:54;100579.91;;;32.00;71.81
24065;BME280;12258;50.940;5.330;2022-09-13T10:42:24;100571.41;;;31.82;74.23
24065;BME280;12258;50.940;5.330;2022-09-13T10:45:02;100586.34;;;32.11;71.92
24065;BME280;12258;50.940;5.330;2022-09-13T10:47:32;100581.50;;;31.41;75.38
24065;BME280;12258;50.940;5.330;2022-09-13T10:52:45;100577.06;;;31.79;76.90
24065;BME280;12258;50.940;5.330;2022-09-13T10:57:50;100572.59;;;32.41;70.83
24065;BME280;12258;50.940;5.330;2022-09-13T11:00:19;100568.13;;;32.43;71.16
24065;BME280;12258;50.940;5.330;2022-09-13T11:03:04;100574.53;;;32.58;73.15
24065;BME280;12258;50.940;5.330;2022-09-13T11:05:39;100570.13;;;31.27;74.55
24065;BME280;12258;50.940;5.330;2022-09-13T11:16:20;100577.47;;;31.60;73.43
24065;BME280;12258;50.940;5.330;2022-09-13T11:19:05;100575.03;;;32.18;77.71
24065;BME280;12258;50.940;5.330;2022-09-13T11:27:34;100583.09;;;32.40;73.09
24065;BME280;12258;50.940;5.330;2022-09-13T11:30:14;100580.56;;;32.67;74.35
24065;BME280;12258;50.940;5.330;2022-09-13T11:44:31;100603.97;;;32.71;73.70
24065;BME280;12258;50.940;5.330;2022-09-13T11:52:52;100580.69;;;32.11;77.05
24065;BME280;12258;50.940;5.330;2022-09-13T11:55:27;100587.66;;;33.10;78.22
24065;BME280;12258;50.940;5.330;2022-09-13T11:58:09;100572.63;;;32.06;77.11
24065;BME280;12258;50.940;5.330;2022-09-13T12:00:45;100577.47;;;31.60;75.15
24065;BME280;12258;50.940;5.330;2022-09-13T12:03:32;100568.59;;;31.93;75.81
24065;BME280;12258;50.940;5.330;2022-09-13T12:06:05;100566.78;;;32.69;72.86
24065;BME280;12258;50.940;5.330;2022-09-13T12:08:42;100567.91;;;33.61;70.09
24065;BME280;12258;50.940;5.330;2022-09-13T12:11:30;100559.69;;;32.12;71.27
24065;BME280;12258;50.940;5.330;2022-09-13T12:14:00;100565.78;;;33.14;67.11
24065;BME280;12258;50.940;5.330;2022-09-13T12:16:51;100559.28;;;33.21;62.44
24065;BME280;12258;50.940;5.330;2022-09-13T12:19:43;100565.19;;;34.69;65.96
24065;BME280;12258;50.940;5.330;2022-09-13T12:22:11;100560.06;;;34.91;63.91
24065;BME280;12258;50.940;5.330;2022-09-13T12:24:50;100562.09;;;35.20;59.77
24065;BME280;12258;50.940;5.330;2022-09-13T12:30:14;100546.66;;;34.61;63.26
24065;BME280;12258;50.940;5.330;2022-09-13T12:32:41;100544.66;;;32.46;66.34
24065;BME280;12258;50.940;5.330;2022-09-13T12:35:13;100539.53;;;31.64;68.72
24065;BME280;12258;50.940;5.330;2022-09-13T12:49:32;100538.13;;;33.36;63.65
24065;BME280;12258;50.940;5.330;2022-09-13T13:00:57;100540.44;;;33.55;64.80
24065;BME280;12258;50.940;5.330;2022-09-13T13:03:29;100541.50;;;33.13;67.70
24065;BME280;12258;50.940;5.330;2022-09-13T13:06:22;100531.94;;;32.93;67.57
24065;BME280;12258;50.940;5.330;2022-09-13T13:08:52;100541.25;;;32.90;67.40
24065;BME280;12258;50.940;5.330;2022-09-13T13:11:22;100532.22;;;32.16;66.46
24065;BME280;12258;50.940;5.330;2022-09-13T13:13:55;100532.81;;;32.80;67.73
24065;BME280;12258;50.940;5.330;2022-09-13T13:16:34;100543.16;;;31.58;73.87
24065;BME280;12258;50.940;5.330;2022-09-13T13:19:03;100542.19;;;32.59;68.50
24065;BME280;12258;50.940;5.330;2022-09-13T13:26:48;100530.22;;;31.14;73.85
24065;BME280;12258;50.940;5.330;2022-09-13T13:42:25;100510.06;;;31.86;69.64
24065;BME280;12258;50.940;5.330;2022-09-13T13:52:49;100525.00;;;31.97;76.25
24065;BME280;12258;50.940;5.330;2022-09-13T13:55:39;100532.69;;;31.90;74.68
24065;BME280;12258;50.940;5.330;2022-09-13T14:00:50;100529.59;;;30.56;79.20
24065;BME280;12258;50.940;5.330;2022-09-13T14:06:15;100535.63;;;29.83;82.37
24065;BME280;12258;50.940;5.330;2022-09-13T14:17:28;100518.63;;;28.88;97.53
24065;BME280;12258;50.940;5.330;2022-09-13T14:20:04;100514.47;;;29.09;95.83
24065;BME280;12258;50.940;5.330;2022-09-13T14:22:33;100515.59;;;30.02;91.57
24065;BME280;12258;50.940;5.330;2022-09-13T14:27:43;100513.94;;;29.94;96.42
24065;BME280;12258;50.940;5.330;2022-09-13T14:30:21;100518.38;;;29.91;94.74
24065;BME280;12258;50.940;5.330;2022-09-13T14:32:52;100521.94;;;28.97;98.33
24065;BME280;12258;50.940;5.330;2022-09-13T14:35:28;100525.56;;;29.82;92.91
24065;BME280;12258;50.940;5.330;2022-09-13T14:38:08;100530.34;;;29.78;93.98
24065;BME280;12258;50.940;5.330;2022-09-13T14:40:34;100530.84;;;29.03;95.71
24065;BME280;12258;50.940;5.330;2022-09-13T14:43:17;100528.06;;;29.47;93.01
24065;BME280;12258;50.940;5.330;2022-09-13T14:45:46;100539.25;;;28.66;96.66
24065;BME280;12258;50.940;5.330;2022-09-13T14:48:17;100531.94;;;28.58;98.07
24065;BME280;12258;50.940;5.330;2022-09-13T14:51:11;100533.78;;;27.65;100.00
24065;BME280;12258;50.940;5.330;2022-09-13T14:53:34;100531.84;;;28.51;100.00
24065;BME280;12258;50.940;5.330;2022-09-13T14:56:06;100533.94;;;28.28;100.00
24065;BME280;12258;50.940;5.330;2022-09-13T14:58:47;100541.72;;;28.71;100.00
24065;BME280;12258;50.940;5.330;2022-09-13T15:01:16;100535.31;;;28.41;100.00
24065;BME280;12258;50.940;5.330;2022-09-13T15:03:45;100543.44;;;28.79;100.00
24065;BME280;12258;50.940;5.330;2022-09-13T15:08:48;100551.25;;;27.55;100.00
24065;BME280;12258;50.940;5.330;2022-09-13T15:11:27;100556.69;;;27.67;100.00
24065;BME280;12258;50.940;5.330;2022-09-13T15:16:53;100549.56;;;26.87;100.00
24065;BME280;12258;50.940;5.330;2022-09-13T15:21:47;100558.38;;;27.49;100.00
24065;BME280;12258;50.940;5.330;2022-09-13T15:24:21;100561.22;;;27.76;100.00
24065;BME280;12258;50.940;5.330;2022-09-13T15:27:46;100557.00;;;27.62;100.00
24065;BME280;12258;50.940;5.330;2022-09-13T15:29:56;100547.63;;;27.10;100.00
24065;BME280;12258;50.940;5.330;2022-09-13T15:32:39;100556.06;;;27.55;100.00
24065;BME280;12258;50.940;5.330;2022-09-13T15:35:23;100548.72;;;26.83;100.00
24065;BME280;12258;50.940;5.330;2022-09-13T15:38:30;100545.81;;;27.21;100.00
24065;BME280;12258;50.940;5.330;2022-09-13T15:41:12;100553.38;;;27.62;100.00
24065;BME280;12258;50.940;5.330;2022-09-13T15:43:38;100551.13;;;27.48;100.00
24065;BME280;12258;50.940;5.330;2022-09-13T15:46:04;100544.66;;;27.44;100.00
24065;BME280;12258;50.940;5.330;2022-09-13T15:48:32;100543.97;;;27.51;100.00
24065;BME280;12258;50.940;5.330;2022-09-13T15:51:12;100537.91;;;27.26;100.00
24065;BME280;12258;50.940;5.330;2022-09-13T15:53:40;100537.44;;;27.02;100.00
24065;BME280;12258;50.940;5.330;2022-09-13T15:56:07;100536.41;;;27.10;100.00
24065;BME280;12258;50.940;5.330;2022-09-13T15:58:33;100539.13;;;27.48;100.00
24065;BME280;12258;50.940;5.330;2022-09-13T16:00:59;100540.88;;;27.33;100.00
24065;BME280;12258;50.940;5.330;2022-09-13T16:03:25;100533.78;;;27.20;100.00
24065;BME280;12258;50.940;5.330;2022-09-13T16:05:51;100527.38;;;26.40;100.00
24065;BME280;12258;50.940;5.330;2022-09-13T16:08:17;100523.16;;;26.88;100.00
24065;BME280;12258;50.940;5.330;2022-09-13T16:10:43;100514.69;;;26.84;100.00
24065;BME280;12258;50.940;5.330;2022-09-13T16:13:08;100518.19;;;27.23;100.00
24065;BME280;12258;50.940;5.330;2022-09-13T16:15:34;100516.16;;;26.78;100.00
24065;BME280;12258;50.940;5.330;2022-09-13T16:18:00;100513.63;;;26.16;100.00